sensor_id;sensor_type;location;lat;lon;timestamp;temperature;humidity
62809;DHT22;48848;39.002;-94.584;2023-07-02T00:02:13;22.60;42.30
62809;DHT22;48848;39.002;-94.584;2023-07-02T00:04:40;22.60;42.40
62809;DHT22;48848;39.002;-94.584;2023-07-02T00:07:06;22.60;42.80
62809;DHT22;48848;39.002;-94.584;2023-07-02T00:09:31;22.60;42.10
62809;DHT22;48848;39.002;-94.584;2023-07-02T00:11:57;22.50;42.10
62809;DHT22;48848;39.002;-94.584;2023-07-02T00:14:23;22.50;42.10
62809;DHT22;48848;39.002;-94.584;2023-07-02T00:16:49;22.40;42.40
62809;DHT22;48848;39.002;-94.584;2023-07-02T00:19:15;22.40;42.20
62809;DHT22;48848;39.002;-94.584;2023-07-02T00:21:41;22.40;42.30
62809;DHT22;48848;39.002;-94.584;2023-07-02T00:24:08;22.40;42.20
62809;DHT22;48848;39.002;-94.584;2023-07-02T00:26:37;22.30;42.20
62809;DHT22;48848;39.002;-94.584;2023-07-02T00:29:06;22.30;42.20
62809;DHT22;48848;39.002;-94.584;2023-07-02T00:31:33;22.30;42.40
62809;DHT22;48848;39.002;-94.584;2023-07-02T00:33:59;22.30;42.30
62809;DHT22;48848;39.002;-94.584;2023-07-02T00:36:28;22.20;42.20
62809;DHT22;48848;39.002;-94.584;2023-07-02T00:38:54;22.20;42.40
62809;DHT22;48848;39.002;-94.584;2023-07-02T00:41:20;22.20;42.10
62809;DHT22;48848;39.002;-94.584;2023-07-02T00:43:46;22.10;42.20
62809;DHT22;48848;39.002;-94.584;2023-07-02T00:46:18;22.10;42.10
62809;DHT22;48848;39.002;-94.584;2023-07-02T00:48:51;22.10;42.20
62809;DHT22;48848;39.002;-94.584;2023-07-02T00:51:19;22.10;42.40
62809;DHT22;48848;39.002;-94.584;2023-07-02T00:53:46;22.00;42.50
62809;DHT22;48848;39.002;-94.584;2023-07-02T00:56:12;22.00;42.10
62809;DHT22;48848;39.002;-94.584;2023-07-02T00:58:39;22.00;42.20
62809;DHT22;48848;39.002;-94.584;2023-07-02T01:01:05;22.00;42.10
62809;DHT22;48848;39.002;-94.584;2023-07-02T01:03:31;21.90;42.10
62809;DHT22;48848;39.002;-94.584;2023-07-02T01:05:58;21.90;41.90
62809;DHT22;48848;39.002;-94.584;2023-07-02T01:08:24;21.90;42.40
62809;DHT22;48848;39.002;-94.584;2023-07-02T01:10:50;21.90;42.30
62809;DHT22;48848;39.002;-94.584;2023-07-02T01:13:17;21.90;42.10
62809;DHT22;48848;39.002;-94.584;2023-07-02T01:15:44;21.90;42.10
62809;DHT22;48848;39.002;-94.584;2023-07-02T01:18:11;21.90;42.20
62809;DHT22;48848;39.002;-94.584;2023-07-02T01:20:37;21.80;42.00
62809;DHT22;48848;39.002;-94.584;2023-07-02T01:23:04;21.80;42.40
62809;DHT22;48848;39.002;-94.584;2023-07-02T01:25:30;21.80;42.10
62809;DHT22;48848;39.002;-94.584;2023-07-02T01:27:56;21.70;42.10
62809;DHT22;48848;39.002;-94.584;2023-07-02T01:30:24;21.70;42.30
62809;DHT22;48848;39.002;-94.584;2023-07-02T01:32:50;21.70;42.30
62809;DHT22;48848;39.002;-94.584;2023-07-02T01:35:16;21.70;42.20
62809;DHT22;48848;39.002;-94.584;2023-07-02T01:37:42;21.70;42.20
62809;DHT22;48848;39.002;-94.584;2023-07-02T01:40:08;21.70;42.40
62809;DHT22;48848;39.002;-94.584;2023-07-02T01:42:34;21.60;42.00
62809;DHT22;48848;39.002;-94.584;2023-07-02T01:45:00;21.60;42.10
62809;DHT22;48848;39.002;-94.584;2023-07-02T01:47:26;21.60;42.00
62809;DHT22;48848;39.002;-94.584;2023-07-02T01:49:52;21.60;42.20
62809;DHT22;48848;39.002;-94.584;2023-07-02T01:52:18;21.60;42.30
62809;DHT22;48848;39.002;-94.584;2023-07-02T01:54:44;21.60;42.40
62809;DHT22;48848;39.002;-94.584;2023-07-02T01:57:10;21.50;42.10
62809;DHT22;48848;39.002;-94.584;2023-07-02T01:59:36;21.50;42.20
62809;DHT22;48848;39.002;-94.584;2023-07-02T02:02:02;21.50;42.20
62809;DHT22;48848;39.002;-94.584;2023-07-02T02:04:28;21.50;42.10
62809;DHT22;48848;39.002;-94.584;2023-07-02T02:06:54;21.50;42.10
62809;DHT22;48848;39.002;-94.584;2023-07-02T02:09:20;21.40;42.00
62809;DHT22;48848;39.002;-94.584;2023-07-02T02:11:47;21.40;43.10
62809;DHT22;48848;39.002;-94.584;2023-07-02T02:14:13;21.40;42.30
62809;DHT22;48848;39.002;-94.584;2023-07-02T02:16:39;21.30;42.10
62809;DHT22;48848;39.002;-94.584;2023-07-02T02:19:05;21.30;42.20
62809;DHT22;48848;39.002;-94.584;2023-07-02T02:21:31;21.30;42.10
62809;DHT22;48848;39.002;-94.584;2023-07-02T02:23:57;21.30;42.20
62809;DHT22;48848;39.002;-94.584;2023-07-02T02:26:23;21.30;42.10
62809;DHT22;48848;39.002;-94.584;2023-07-02T02:28:50;21.30;42.10
62809;DHT22;48848;39.002;-94.584;2023-07-02T02:31:16;21.20;42.40
62809;DHT22;48848;39.002;-94.584;2023-07-02T02:33:42;21.40;44.30
62809;DHT22;48848;39.002;-94.584;2023-07-02T02:36:08;21.40;44.10
62809;DHT22;48848;39.002;-94.584;2023-07-02T02:38:34;21.60;43.80
62809;DHT22;48848;39.002;-94.584;2023-07-02T02:41:00;21.70;43.80
62809;DHT22;48848;39.002;-94.584;2023-07-02T02:43:27;21.90;43.50
62809;DHT22;48848;39.002;-94.584;2023-07-02T02:45:53;21.90;43.30
62809;DHT22;48848;39.002;-94.584;2023-07-02T02:48:19;22.10;43.20
62809;DHT22;48848;39.002;-94.584;2023-07-02T02:50:45;22.20;43.10
62809;DHT22;48848;39.002;-94.584;2023-07-02T02:53:11;22.20;43.20
62809;DHT22;48848;39.002;-94.584;2023-07-02T02:55:37;22.30;43.10
62809;DHT22;48848;39.002;-94.584;2023-07-02T02:58:03;22.40;43.20
62809;DHT22;48848;39.002;-94.584;2023-07-02T03:00:29;22.40;43.30
62809;DHT22;48848;39.002;-94.584;2023-07-02T03:02:55;22.40;43.20
62809;DHT22;48848;39.002;-94.584;2023-07-02T03:05:21;22.50;43.30
62809;DHT22;48848;39.002;-94.584;2023-07-02T03:07:47;22.60;43.40
62809;DHT22;48848;39.002;-94.584;2023-07-02T03:10:13;22.60;43.40
62809;DHT22;48848;39.002;-94.584;2023-07-02T03:12:39;22.70;43.40
62809;DHT22;48848;39.002;-94.584;2023-07-02T03:15:05;22.70;43.30
62809;DHT22;48848;39.002;-94.584;2023-07-02T03:17:31;22.70;43.30
62809;DHT22;48848;39.002;-94.584;2023-07-02T03:19:57;22.80;43.40
62809;DHT22;48848;39.002;-94.584;2023-07-02T03:22:23;22.80;43.50
62809;DHT22;48848;39.002;-94.584;2023-07-02T03:24:49;22.80;43.60
62809;DHT22;48848;39.002;-94.584;2023-07-02T03:27:15;22.80;43.70
62809;DHT22;48848;39.002;-94.584;2023-07-02T03:29:40;22.80;43.80
62809;DHT22;48848;39.002;-94.584;2023-07-02T03:32:06;22.80;43.80
62809;DHT22;48848;39.002;-94.584;2023-07-02T03:34:32;22.80;43.80
62809;DHT22;48848;39.002;-94.584;2023-07-02T03:36:58;22.90;43.90
62809;DHT22;48848;39.002;-94.584;2023-07-02T03:39:24;22.90;43.80
62809;DHT22;48848;39.002;-94.584;2023-07-02T03:41:50;22.90;44.00
62809;DHT22;48848;39.002;-94.584;2023-07-02T03:44:16;23.00;43.90
62809;DHT22;48848;39.002;-94.584;2023-07-02T03:46:42;23.00;44.00
62809;DHT22;48848;39.002;-94.584;2023-07-02T03:49:08;23.10;44.00
62809;DHT22;48848;39.002;-94.584;2023-07-02T03:51:34;23.10;44.00
62809;DHT22;48848;39.002;-94.584;2023-07-02T03:53:59;23.20;44.00
62809;DHT22;48848;39.002;-94.584;2023-07-02T03:56:25;23.20;44.00
62809;DHT22;48848;39.002;-94.584;2023-07-02T03:58:52;23.20;44.00
62809;DHT22;48848;39.002;-94.584;2023-07-02T04:01:18;23.30;44.10
62809;DHT22;48848;39.002;-94.584;2023-07-02T04:03:50;23.30;44.20
62809;DHT22;48848;39.002;-94.584;2023-07-02T04:06:16;23.30;44.30
62809;DHT22;48848;39.002;-94.584;2023-07-02T04:08:43;23.50;43.00
62809;DHT22;48848;39.002;-94.584;2023-07-02T04:11:09;23.60;41.10
62809;DHT22;48848;39.002;-94.584;2023-07-02T04:13:35;23.50;40.80
62809;DHT22;48848;39.002;-94.584;2023-07-02T04:16:01;23.30;40.50
62809;DHT22;48848;39.002;-94.584;2023-07-02T04:18:26;23.10;40.80
62809;DHT22;48848;39.002;-94.584;2023-07-02T04:20:54;22.90;40.90
62809;DHT22;48848;39.002;-94.584;2023-07-02T04:23:20;22.70;40.90
62809;DHT22;48848;39.002;-94.584;2023-07-02T04:25:46;22.60;41.00
62809;DHT22;48848;39.002;-94.584;2023-07-02T04:28:12;22.50;41.10
62809;DHT22;48848;39.002;-94.584;2023-07-02T04:30:37;22.40;41.10
62809;DHT22;48848;39.002;-94.584;2023-07-02T04:33:03;22.30;41.30
62809;DHT22;48848;39.002;-94.584;2023-07-02T04:35:31;22.30;48.30
62809;DHT22;48848;39.002;-94.584;2023-07-02T04:37:57;22.40;52.80
62809;DHT22;48848;39.002;-94.584;2023-07-02T04:40:24;22.40;50.40
62809;DHT22;48848;39.002;-94.584;2023-07-02T04:42:49;22.70;47.50
62809;DHT22;48848;39.002;-94.584;2023-07-02T04:45:26;22.60;47.30
62809;DHT22;48848;39.002;-94.584;2023-07-02T04:47:52;22.60;47.60
62809;DHT22;48848;39.002;-94.584;2023-07-02T04:50:18;22.60;47.40
62809;DHT22;48848;39.002;-94.584;2023-07-02T04:52:44;22.70;46.90
62809;DHT22;48848;39.002;-94.584;2023-07-02T04:55:10;22.70;46.90
62809;DHT22;48848;39.002;-94.584;2023-07-02T04:57:36;22.70;46.20
62809;DHT22;48848;39.002;-94.584;2023-07-02T05:00:03;22.80;46.50
62809;DHT22;48848;39.002;-94.584;2023-07-02T05:02:31;22.90;46.30
62809;DHT22;48848;39.002;-94.584;2023-07-02T05:04:57;22.90;46.30
62809;DHT22;48848;39.002;-94.584;2023-07-02T05:07:23;23.00;46.60
62809;DHT22;48848;39.002;-94.584;2023-07-02T05:09:49;23.00;46.40
62809;DHT22;48848;39.002;-94.584;2023-07-02T05:12:17;23.10;46.40
62809;DHT22;48848;39.002;-94.584;2023-07-02T05:14:43;23.10;46.60
62809;DHT22;48848;39.002;-94.584;2023-07-02T05:17:09;23.20;46.40
62809;DHT22;48848;39.002;-94.584;2023-07-02T05:19:34;23.20;46.30
62809;DHT22;48848;39.002;-94.584;2023-07-02T05:22:00;23.20;46.10
62809;DHT22;48848;39.002;-94.584;2023-07-02T05:24:26;23.20;46.20
62809;DHT22;48848;39.002;-94.584;2023-07-02T05:26:52;23.20;46.20
62809;DHT22;48848;39.002;-94.584;2023-07-02T05:29:18;23.20;46.20
62809;DHT22;48848;39.002;-94.584;2023-07-02T05:31:44;23.20;46.40
62809;DHT22;48848;39.002;-94.584;2023-07-02T05:34:10;23.20;46.30
62809;DHT22;48848;39.002;-94.584;2023-07-02T05:36:37;23.30;46.30
62809;DHT22;48848;39.002;-94.584;2023-07-02T05:39:03;23.30;46.60
62809;DHT22;48848;39.002;-94.584;2023-07-02T05:41:29;23.20;46.90
62809;DHT22;48848;39.002;-94.584;2023-07-02T05:43:56;23.20;47.00
62809;DHT22;48848;39.002;-94.584;2023-07-02T05:46:22;23.30;47.00
62809;DHT22;48848;39.002;-94.584;2023-07-02T05:48:48;23.20;46.80
62809;DHT22;48848;39.002;-94.584;2023-07-02T05:51:19;23.30;46.90
62809;DHT22;48848;39.002;-94.584;2023-07-02T05:53:45;23.30;46.70
62809;DHT22;48848;39.002;-94.584;2023-07-02T05:56:11;23.30;46.60
62809;DHT22;48848;39.002;-94.584;2023-07-02T05:58:36;23.30;46.70
62809;DHT22;48848;39.002;-94.584;2023-07-02T06:01:02;23.30;46.80
62809;DHT22;48848;39.002;-94.584;2023-07-02T06:03:30;23.30;46.90
62809;DHT22;48848;39.002;-94.584;2023-07-02T06:05:56;23.30;46.90
62809;DHT22;48848;39.002;-94.584;2023-07-02T06:08:22;23.30;47.00
62809;DHT22;48848;39.002;-94.584;2023-07-02T06:10:48;23.40;47.00
62809;DHT22;48848;39.002;-94.584;2023-07-02T06:13:14;23.40;47.30
62809;DHT22;48848;39.002;-94.584;2023-07-02T06:15:40;23.50;47.40
62809;DHT22;48848;39.002;-94.584;2023-07-02T06:18:06;23.50;47.30
62809;DHT22;48848;39.002;-94.584;2023-07-02T06:20:32;23.40;47.30
62809;DHT22;48848;39.002;-94.584;2023-07-02T06:22:58;23.40;47.30
62809;DHT22;48848;39.002;-94.584;2023-07-02T06:25:23;23.40;46.90
62809;DHT22;48848;39.002;-94.584;2023-07-02T06:27:49;23.50;47.10
62809;DHT22;48848;39.002;-94.584;2023-07-02T06:30:15;23.50;47.10
62809;DHT22;48848;39.002;-94.584;2023-07-02T06:32:41;23.50;47.10
62809;DHT22;48848;39.002;-94.584;2023-07-02T06:35:07;23.60;47.10
62809;DHT22;48848;39.002;-94.584;2023-07-02T06:37:33;23.50;47.10
62809;DHT22;48848;39.002;-94.584;2023-07-02T06:39:59;23.50;47.30
62809;DHT22;48848;39.002;-94.584;2023-07-02T06:42:25;23.50;47.70
62809;DHT22;48848;39.002;-94.584;2023-07-02T06:44:51;23.50;47.50
62809;DHT22;48848;39.002;-94.584;2023-07-02T06:47:16;23.60;47.60
62809;DHT22;48848;39.002;-94.584;2023-07-02T06:49:42;23.60;47.60
62809;DHT22;48848;39.002;-94.584;2023-07-02T06:52:08;23.60;47.40
62809;DHT22;48848;39.002;-94.584;2023-07-02T06:54:34;23.60;47.70
62809;DHT22;48848;39.002;-94.584;2023-07-02T06:57:00;23.60;47.70
62809;DHT22;48848;39.002;-94.584;2023-07-02T06:59:26;23.50;47.50
62809;DHT22;48848;39.002;-94.584;2023-07-02T07:01:52;23.60;47.50
62809;DHT22;48848;39.002;-94.584;2023-07-02T07:04:18;23.70;47.30
62809;DHT22;48848;39.002;-94.584;2023-07-02T07:06:44;23.70;47.20
62809;DHT22;48848;39.002;-94.584;2023-07-02T07:09:10;23.70;47.30
62809;DHT22;48848;39.002;-94.584;2023-07-02T07:11:36;23.80;47.30
62809;DHT22;48848;39.002;-94.584;2023-07-02T07:14:01;23.70;47.40
62809;DHT22;48848;39.002;-94.584;2023-07-02T07:16:27;23.80;47.30
62809;DHT22;48848;39.002;-94.584;2023-07-02T07:18:53;23.70;47.40
62809;DHT22;48848;39.002;-94.584;2023-07-02T07:21:19;23.70;47.70
62809;DHT22;48848;39.002;-94.584;2023-07-02T07:23:45;23.60;47.90
62809;DHT22;48848;39.002;-94.584;2023-07-02T07:26:11;23.70;47.70
62809;DHT22;48848;39.002;-94.584;2023-07-02T07:28:37;23.70;47.70
62809;DHT22;48848;39.002;-94.584;2023-07-02T07:31:02;23.70;48.70
62809;DHT22;48848;39.002;-94.584;2023-07-02T07:33:28;23.70;47.40
62809;DHT22;48848;39.002;-94.584;2023-07-02T07:35:54;23.80;47.50
62809;DHT22;48848;39.002;-94.584;2023-07-02T07:38:20;23.80;47.30
62809;DHT22;48848;39.002;-94.584;2023-07-02T07:40:46;23.80;47.40
62809;DHT22;48848;39.002;-94.584;2023-07-02T07:43:12;23.80;47.50
62809;DHT22;48848;39.002;-94.584;2023-07-02T07:45:37;23.80;47.20
62809;DHT22;48848;39.002;-94.584;2023-07-02T07:48:06;23.80;47.30
62809;DHT22;48848;39.002;-94.584;2023-07-02T07:50:32;23.90;47.40
62809;DHT22;48848;39.002;-94.584;2023-07-02T07:52:58;23.80;47.80
62809;DHT22;48848;39.002;-94.584;2023-07-02T07:55:24;23.70;48.00
62809;DHT22;48848;39.002;-94.584;2023-07-02T07:57:50;23.80;47.80
62809;DHT22;48848;39.002;-94.584;2023-07-02T08:00:16;23.70;48.00
62809;DHT22;48848;39.002;-94.584;2023-07-02T08:02:46;23.80;47.80
62809;DHT22;48848;39.002;-94.584;2023-07-02T08:05:14;23.80;47.70
62809;DHT22;48848;39.002;-94.584;2023-07-02T08:07:40;23.80;48.60
62809;DHT22;48848;39.002;-94.584;2023-07-02T08:10:06;23.80;47.70
62809;DHT22;48848;39.002;-94.584;2023-07-02T08:12:33;23.80;47.60
62809;DHT22;48848;39.002;-94.584;2023-07-02T08:15:00;23.80;47.60
62809;DHT22;48848;39.002;-94.584;2023-07-02T08:17:25;23.80;47.70
62809;DHT22;48848;39.002;-94.584;2023-07-02T08:19:51;23.80;47.90
62809;DHT22;48848;39.002;-94.584;2023-07-02T08:22:17;23.80;47.80
62809;DHT22;48848;39.002;-94.584;2023-07-02T08:24:43;23.80;48.00
62809;DHT22;48848;39.002;-94.584;2023-07-02T08:27:09;23.80;48.10
62809;DHT22;48848;39.002;-94.584;2023-07-02T08:29:36;23.80;48.00
62809;DHT22;48848;39.002;-94.584;2023-07-02T08:32:01;23.80;48.00
62809;DHT22;48848;39.002;-94.584;2023-07-02T08:34:27;23.80;48.00
62809;DHT22;48848;39.002;-94.584;2023-07-02T08:36:53;23.80;47.90
62809;DHT22;48848;39.002;-94.584;2023-07-02T08:39:19;23.90;47.80
62809;DHT22;48848;39.002;-94.584;2023-07-02T08:41:45;23.80;47.80
62809;DHT22;48848;39.002;-94.584;2023-07-02T08:44:12;23.80;47.90
62809;DHT22;48848;39.002;-94.584;2023-07-02T08:46:39;23.80;48.00
62809;DHT22;48848;39.002;-94.584;2023-07-02T08:49:05;23.80;47.90
62809;DHT22;48848;39.002;-94.584;2023-07-02T08:51:31;23.80;48.10
62809;DHT22;48848;39.002;-94.584;2023-07-02T08:53:57;23.90;48.10
62809;DHT22;48848;39.002;-94.584;2023-07-02T08:56:23;23.90;48.20
62809;DHT22;48848;39.002;-94.584;2023-07-02T08:58:49;23.80;48.50
62809;DHT22;48848;39.002;-94.584;2023-07-02T09:01:15;23.90;48.40
62809;DHT22;48848;39.002;-94.584;2023-07-02T09:03:41;23.90;48.10
62809;DHT22;48848;39.002;-94.584;2023-07-02T09:06:07;23.90;48.10
62809;DHT22;48848;39.002;-94.584;2023-07-02T09:08:34;23.90;48.10
62809;DHT22;48848;39.002;-94.584;2023-07-02T09:11:10;23.90;48.10
62809;DHT22;48848;39.002;-94.584;2023-07-02T09:13:46;24.00;48.20
62809;DHT22;48848;39.002;-94.584;2023-07-02T09:16:22;24.00;48.00
62809;DHT22;48848;39.002;-94.584;2023-07-02T09:18:58;24.00;47.80
62809;DHT22;48848;39.002;-94.584;2023-07-02T09:22:06;24.00;48.90
62809;DHT22;48848;39.002;-94.584;2023-07-02T09:26:45;23.90;47.90
62809;DHT22;48848;39.002;-94.584;2023-07-02T09:29:12;24.00;47.90
62809;DHT22;48848;39.002;-94.584;2023-07-02T09:31:46;23.90;47.90
62809;DHT22;48848;39.002;-94.584;2023-07-02T09:34:12;24.00;48.00
62809;DHT22;48848;39.002;-94.584;2023-07-02T09:36:38;24.00;47.90
62809;DHT22;48848;39.002;-94.584;2023-07-02T09:39:11;24.00;48.00
62809;DHT22;48848;39.002;-94.584;2023-07-02T09:41:37;24.00;48.00
62809;DHT22;48848;39.002;-94.584;2023-07-02T09:44:04;24.10;48.00
62809;DHT22;48848;39.002;-94.584;2023-07-02T09:46:30;24.10;48.30
62809;DHT22;48848;39.002;-94.584;2023-07-02T09:48:56;24.10;48.10
62809;DHT22;48848;39.002;-94.584;2023-07-02T09:51:23;24.10;48.20
62809;DHT22;48848;39.002;-94.584;2023-07-02T09:53:50;24.10;47.80
62809;DHT22;48848;39.002;-94.584;2023-07-02T09:56:16;24.20;47.90
62809;DHT22;48848;39.002;-94.584;2023-07-02T09:58:44;24.10;47.80
62809;DHT22;48848;39.002;-94.584;2023-07-02T10:01:10;24.20;47.80
62809;DHT22;48848;39.002;-94.584;2023-07-02T10:03:35;24.30;47.70
62809;DHT22;48848;39.002;-94.584;2023-07-02T10:06:05;24.40;47.60
62809;DHT22;48848;39.002;-94.584;2023-07-02T10:08:31;24.40;47.60
62809;DHT22;48848;39.002;-94.584;2023-07-02T10:11:12;24.50;47.50
62809;DHT22;48848;39.002;-94.584;2023-07-02T10:13:39;24.40;47.80
62809;DHT22;48848;39.002;-94.584;2023-07-02T10:16:05;24.50;47.70
62809;DHT22;48848;39.002;-94.584;2023-07-02T10:18:31;24.40;47.60
62809;DHT22;48848;39.002;-94.584;2023-07-02T10:20:57;24.50;47.60
62809;DHT22;48848;39.002;-94.584;2023-07-02T10:23:35;24.50;47.60
62809;DHT22;48848;39.002;-94.584;2023-07-02T10:26:19;24.60;47.30
62809;DHT22;48848;39.002;-94.584;2023-07-02T10:29:06;24.60;47.50
62809;DHT22;48848;39.002;-94.584;2023-07-02T10:31:31;24.60;47.20
62809;DHT22;48848;39.002;-94.584;2023-07-02T10:33:57;24.60;47.00
62809;DHT22;48848;39.002;-94.584;2023-07-02T10:36:23;24.60;46.90
62809;DHT22;48848;39.002;-94.584;2023-07-02T10:38:49;24.60;46.90
62809;DHT22;48848;39.002;-94.584;2023-07-02T10:41:25;24.60;46.90
62809;DHT22;48848;39.002;-94.584;2023-07-02T10:43:52;24.60;47.20
62809;DHT22;48848;39.002;-94.584;2023-07-02T10:46:21;24.60;47.30
62809;DHT22;48848;39.002;-94.584;2023-07-02T10:48:56;24.60;47.30
62809;DHT22;48848;39.002;-94.584;2023-07-02T10:51:22;24.60;47.30
62809;DHT22;48848;39.002;-94.584;2023-07-02T10:53:59;24.50;47.10
62809;DHT22;48848;39.002;-94.584;2023-07-02T10:56:25;24.60;47.20
62809;DHT22;48848;39.002;-94.584;2023-07-02T10:58:53;24.60;47.10
62809;DHT22;48848;39.002;-94.584;2023-07-02T11:01:29;24.60;47.00
62809;DHT22;48848;39.002;-94.584;2023-07-02T11:03:55;24.50;47.30
62809;DHT22;48848;39.002;-94.584;2023-07-02T11:06:21;24.50;47.40
62809;DHT22;48848;39.002;-94.584;2023-07-02T11:08:47;24.50;47.10
62809;DHT22;48848;39.002;-94.584;2023-07-02T11:11:13;24.60;47.10
62809;DHT22;48848;39.002;-94.584;2023-07-02T11:13:46;24.60;47.10
62809;DHT22;48848;39.002;-94.584;2023-07-02T11:18:48;24.60;47.20
62809;DHT22;48848;39.002;-94.584;2023-07-02T11:21:14;24.60;47.10
62809;DHT22;48848;39.002;-94.584;2023-07-02T11:23:39;24.60;47.10
62809;DHT22;48848;39.002;-94.584;2023-07-02T11:26:05;24.70;46.90
62809;DHT22;48848;39.002;-94.584;2023-07-02T11:28:31;24.70;46.90
62809;DHT22;48848;39.002;-94.584;2023-07-02T11:31:00;24.60;46.80
62809;DHT22;48848;39.002;-94.584;2023-07-02T11:33:34;24.70;46.70
62809;DHT22;48848;39.002;-94.584;2023-07-02T11:36:00;24.70;46.90
62809;DHT22;48848;39.002;-94.584;2023-07-02T11:38:26;24.70;47.00
62809;DHT22;48848;39.002;-94.584;2023-07-02T11:40:52;24.70;46.60
62809;DHT22;48848;39.002;-94.584;2023-07-02T11:43:18;24.70;46.80
62809;DHT22;48848;39.002;-94.584;2023-07-02T11:45:44;24.70;46.90
62809;DHT22;48848;39.002;-94.584;2023-07-02T11:48:10;24.80;46.90
62809;DHT22;48848;39.002;-94.584;2023-07-02T11:50:36;24.80;46.70
62809;DHT22;48848;39.002;-94.584;2023-07-02T11:53:01;24.80;46.70
62809;DHT22;48848;39.002;-94.584;2023-07-02T11:55:28;24.80;47.60
62809;DHT22;48848;39.002;-94.584;2023-07-02T11:57:57;24.80;46.60
62809;DHT22;48848;39.002;-94.584;2023-07-02T12:00:23;24.80;46.50
62809;DHT22;48848;39.002;-94.584;2023-07-02T12:02:49;24.80;46.60
62809;DHT22;48848;39.002;-94.584;2023-07-02T12:05:15;24.80;46.60
62809;DHT22;48848;39.002;-94.584;2023-07-02T12:07:40;24.70;46.60
62809;DHT22;48848;39.002;-94.584;2023-07-02T12:10:07;24.70;46.90
62809;DHT22;48848;39.002;-94.584;2023-07-02T12:12:33;24.60;47.90
62809;DHT22;48848;39.002;-94.584;2023-07-02T12:14:59;24.60;47.00
62809;DHT22;48848;39.002;-94.584;2023-07-02T12:17:25;24.60;47.10
62809;DHT22;48848;39.002;-94.584;2023-07-02T12:19:50;24.60;47.00
62809;DHT22;48848;39.002;-94.584;2023-07-02T12:22:16;24.70;47.10
62809;DHT22;48848;39.002;-94.584;2023-07-02T12:24:43;24.60;47.20
62809;DHT22;48848;39.002;-94.584;2023-07-02T12:27:09;24.70;47.10
62809;DHT22;48848;39.002;-94.584;2023-07-02T12:29:36;24.70;47.30
62809;DHT22;48848;39.002;-94.584;2023-07-02T12:32:01;24.60;47.50
62809;DHT22;48848;39.002;-94.584;2023-07-02T12:34:27;24.60;47.60
62809;DHT22;48848;39.002;-94.584;2023-07-02T12:36:54;24.60;47.70
62809;DHT22;48848;39.002;-94.584;2023-07-02T12:39:20;24.60;47.60
62809;DHT22;48848;39.002;-94.584;2023-07-02T12:41:46;24.60;47.60
62809;DHT22;48848;39.002;-94.584;2023-07-02T12:44:12;24.50;47.80
62809;DHT22;48848;39.002;-94.584;2023-07-02T12:46:38;24.50;47.80
62809;DHT22;48848;39.002;-94.584;2023-07-02T12:49:04;24.50;47.60
62809;DHT22;48848;39.002;-94.584;2023-07-02T12:51:29;24.50;47.70
62809;DHT22;48848;39.002;-94.584;2023-07-02T12:53:56;24.50;47.50
62809;DHT22;48848;39.002;-94.584;2023-07-02T12:56:22;24.60;47.70
62809;DHT22;48848;39.002;-94.584;2023-07-02T12:58:48;24.60;47.40
62809;DHT22;48848;39.002;-94.584;2023-07-02T13:01:13;24.60;47.60
62809;DHT22;48848;39.002;-94.584;2023-07-02T13:03:44;24.70;47.50
62809;DHT22;48848;39.002;-94.584;2023-07-02T13:06:10;24.60;47.70
62809;DHT22;48848;39.002;-94.584;2023-07-02T13:08:36;24.60;47.40
62809;DHT22;48848;39.002;-94.584;2023-07-02T13:11:02;24.60;47.60
62809;DHT22;48848;39.002;-94.584;2023-07-02T13:13:28;24.70;47.60
62809;DHT22;48848;39.002;-94.584;2023-07-02T13:15:54;24.80;47.40
62809;DHT22;48848;39.002;-94.584;2023-07-02T13:18:20;24.80;47.30
62809;DHT22;48848;39.002;-94.584;2023-07-02T13:20:45;24.80;47.30
62809;DHT22;48848;39.002;-94.584;2023-07-02T13:23:11;24.80;47.20
62809;DHT22;48848;39.002;-94.584;2023-07-02T13:25:37;24.80;47.10
62809;DHT22;48848;39.002;-94.584;2023-07-02T13:28:03;24.70;47.30
62809;DHT22;48848;39.002;-94.584;2023-07-02T13:30:29;24.80;47.50
62809;DHT22;48848;39.002;-94.584;2023-07-02T13:32:56;24.90;47.60
62809;DHT22;48848;39.002;-94.584;2023-07-02T13:35:22;24.70;47.70
62809;DHT22;48848;39.002;-94.584;2023-07-02T13:37:48;24.70;48.00
62809;DHT22;48848;39.002;-94.584;2023-07-02T13:40:14;24.70;48.20
62809;DHT22;48848;39.002;-94.584;2023-07-02T13:42:41;24.60;48.20
62809;DHT22;48848;39.002;-94.584;2023-07-02T13:45:07;24.70;48.50
62809;DHT22;48848;39.002;-94.584;2023-07-02T13:47:34;24.60;48.80
62809;DHT22;48848;39.002;-94.584;2023-07-02T13:50:00;24.60;48.60
62809;DHT22;48848;39.002;-94.584;2023-07-02T13:52:26;24.80;48.20
62809;DHT22;48848;39.002;-94.584;2023-07-02T13:54:52;24.80;47.90
62809;DHT22;48848;39.002;-94.584;2023-07-02T13:57:18;24.70;48.30
62809;DHT22;48848;39.002;-94.584;2023-07-02T13:59:44;24.80;48.20
62809;DHT22;48848;39.002;-94.584;2023-07-02T14:02:10;24.90;48.30
62809;DHT22;48848;39.002;-94.584;2023-07-02T14:04:35;24.80;48.30
62809;DHT22;48848;39.002;-94.584;2023-07-02T14:07:02;24.80;48.50
62809;DHT22;48848;39.002;-94.584;2023-07-02T14:09:28;24.80;48.20
62809;DHT22;48848;39.002;-94.584;2023-07-02T14:11:54;24.80;48.00
62809;DHT22;48848;39.002;-94.584;2023-07-02T14:14:20;24.80;48.30
62809;DHT22;48848;39.002;-94.584;2023-07-02T14:16:46;24.90;48.40
62809;DHT22;48848;39.002;-94.584;2023-07-02T14:19:11;24.80;48.30
62809;DHT22;48848;39.002;-94.584;2023-07-02T14:21:37;24.90;48.30
62809;DHT22;48848;39.002;-94.584;2023-07-02T14:24:03;24.90;48.10
62809;DHT22;48848;39.002;-94.584;2023-07-02T14:26:30;24.90;47.90
62809;DHT22;48848;39.002;-94.584;2023-07-02T14:28:56;24.90;47.90
62809;DHT22;48848;39.002;-94.584;2023-07-02T14:31:23;24.90;48.10
62809;DHT22;48848;39.002;-94.584;2023-07-02T14:33:49;24.90;48.00
62809;DHT22;48848;39.002;-94.584;2023-07-02T14:36:15;24.90;48.10
62809;DHT22;48848;39.002;-94.584;2023-07-02T14:38:41;24.80;48.30
62809;DHT22;48848;39.002;-94.584;2023-07-02T14:41:07;24.80;48.40
62809;DHT22;48848;39.002;-94.584;2023-07-02T14:43:33;24.80;48.60
62809;DHT22;48848;39.002;-94.584;2023-07-02T14:46:01;24.70;48.80
62809;DHT22;48848;39.002;-94.584;2023-07-02T14:48:27;24.70;48.80
62809;DHT22;48848;39.002;-94.584;2023-07-02T14:50:54;24.60;49.00
62809;DHT22;48848;39.002;-94.584;2023-07-02T14:53:20;24.60;48.90
62809;DHT22;48848;39.002;-94.584;2023-07-02T14:55:46;24.70;48.80
62809;DHT22;48848;39.002;-94.584;2023-07-02T14:58:13;24.70;48.90
62809;DHT22;48848;39.002;-94.584;2023-07-02T15:00:49;24.70;49.20
62809;DHT22;48848;39.002;-94.584;2023-07-02T15:03:15;24.60;49.50
62809;DHT22;48848;39.002;-94.584;2023-07-02T15:05:41;24.60;49.20